Flight Track Log - Related Links

Times and Time Zones

All times are in EDT time to prevent confusion due to time zone crossing. See the USC105 flight status page for this flight to view local times or setup timezone preferences in your user account.

Time Position Orientation Groundspeed Altitude Reporting Facility
EDT Latitude Longitude Course Direction KTS km/h feet Rate Location/Type
Tue 05:37:13 41.9167 -88.2500 153° Southeast 13 24 800  Level Chicago TRACON
Tue 05:39:11 41.8883 -88.2164 139° Southeast 107 198 2.200 708 Climbing Chicago Center
Tue 05:40:11 41.8617 -88.1942 148° Southeast 110 204 2.900 347 Climbing Chicago Center
Tue 05:41:12 41.8306 -88.1642 144° Southeast 123 229 2.900 248 Level Chicago Center
Tue 05:42:00 41.9386 -87.8965 151° Southeast  Level Estimated
Tue 05:42:12 41.8119 -88.1175 118° Southeast 145 269 3.400  Level Chicago Center
Tue 05:43:00 41.9448 -87.8261 153° Southeast  Level Estimated
Tue 05:43:13 41.8189 -88.0600 81° East 154 285 4.100  Level Chicago Center
Tue 05:44:13 41.8250 -88.0050 82° East 152 282 4.700 595 Climbing Chicago Center
Tue 05:45:14 41.8314 -87.9478 81° East 153 283 5.300 595 Climbing Chicago Center
Tue 05:46:14 41.8394 -87.8919 79° East 153 283 5.900 350 Climbing Chicago Center
Tue 05:47:14 41.8475 -87.8308 80° East 158 293 6.000  Climbing Chicago Center
Tue 05:48:15 41.8522 -87.7589 85° East 176 327 5.900 -50 Descending Chicago Center
Tue 05:49:15 41.8608 -87.6889 81° East 189 349 5.900  Level Chicago Center
Tue 05:50:16 41.8669 -87.6211 83° East 186 344 5.900  Level Chicago Center
Tue 05:51:15 41.8833 -87.5500 73° East 192 356 5.900  Level Chicago TRACON
Tue 05:52:09 41.8833 -87.4833 90° East 191 354 5.900  Level Chicago TRACON
Tue 05:53:09 41.8833 -87.4167 90° East 192 356 5.900  Level Chicago TRACON
Tue 05:54:17 41.8975 -87.3386 76° East 193 357 5.900 93 Level Chicago Center
Tue 05:55:18 41.9053 -87.2689 81° East 191 354 6.100 298 Climbing Chicago Center
Tue 05:56:18 41.9119 -87.2053 82° East 176 327 6.500 397 Climbing Chicago Center
Tue 05:57:19 41.9181 -87.1406 83° East 175 323 6.900 198 Climbing Chicago Center
Tue 05:58:19 41.9253 -87.0733 82° East 179 332 6.900 50 Level Chicago Center
Tue 05:59:19 41.9325 -87.0022 82° East 188 348 7.000 50 Climbing Chicago Center
Tue 06:00:20 41.9397 -86.9328 82° East 189 349 7.000  Level Chicago Center
Tue 06:01:20 41.9475 -86.8617 82° East 191 354 7.000  Level Chicago Center
Tue 06:02:21 41.9539 -86.7894 83° East 194 359 7.000  Level Chicago Center
Tue 06:03:21 41.9633 -86.7006 82° East 199 369 7.000  Level Chicago Center
Tue 06:04:22 41.9689 -86.6381 83° East 200 370 7.000  Level Chicago Center
Tue 06:05:22 41.9772 -86.5619 82° East 203 377 7.000  Level Chicago Center
Tue 06:06:22 41.9842 -86.4878 83° East 202 373 7.000  Level Chicago Center
Tue 06:07:23 41.9925 -86.4119 82° East 204 378 7.000  Level Chicago Center
Tue 06:08:23 41.9997 -86.3336 83° East 209 388 7.000  Level Chicago Center
Tue 06:09:24 42.0081 -86.2519 82° East 218 404 7.000  Level Chicago Center
Tue 06:10:24 42.0156 -86.1728 83° East 216 401 7.000  Level Chicago Center
Tue 06:11:25 42.0233 -86.0936 82° East 214 396 7.000  Level Chicago Center
Tue 06:12:25 42.0306 -86.0172 83° East 209 388 7.000  Level Chicago Center
Tue 06:13:25 42.0394 -85.9267 82° East 206 381 7.000  Level Chicago Center
Tue 06:14:26 42.0469 -85.8503 82° East 206 381 7.000  Level Chicago Center
Tue 06:15:26 42.0544 -85.7747 82° East 204 378 7.000  Level Chicago Center
Tue 06:16:27 42.0606 -85.6992 84° East 204 378 7.000  Level Chicago Center
Tue 06:17:27 42.0678 -85.6231 83° East 204 378 7.000  Level Chicago Center
Tue 06:18:28 42.0742 -85.5461 84° East 206 381 7.000  Level Chicago Center
Tue 06:19:29 42.0819 -85.4697 82° East 206 381 7.000  Level Chicago Center
Tue 06:20:29 42.0889 -85.3925 83° East 207 383 7.000  Level Chicago Center
Tue 06:21:30 42.0961 -85.3158 83° East 207 383 7.000  Level Chicago Center
Tue 06:22:30 42.1025 -85.2386 84° East 207 383 7.000  Level Chicago Center
Tue 06:23:31 42.1094 -85.1600 83° East 210 389 7.000  Level Chicago Center
Tue 06:24:31 42.1167 -85.0814 83° East 210 389 7.000  Level Chicago Center
Tue 06:25:32 42.1233 -85.0031 83° East 210 389 7.000  Level Chicago Center
Tue 06:26:32 42.1297 -84.9242 84° East 212 393 7.000  Level Chicago Center
Tue 06:27:33 42.1364 -84.8458 83° East 211 391 7.000  Level Chicago Center
Tue 06:28:33 42.1431 -84.7669 83° East 211 391 7.000  Level Chicago Center
Tue 06:29:34 42.1497 -84.6872 84° East 213 394 7.000  Level Chicago Center
Tue 06:30:34 42.1561 -84.6094 84° East 212 393 7.000  Level Chicago Center
Tue 06:31:35 42.1631 -84.5275 83° East 210 389 7.000  Level Chicago Center
Tue 06:32:36 42.1689 -84.4492 84° East 211 391 7.000  Level Chicago Center
Tue 06:33:03 42.1733 -84.4106 81° East 208 385 7.000  Level Cleveland Center
Tue 06:34:10 42.1783 -84.3269 85° East 207 383 7.000  Level Cleveland Center
Tue 06:34:59 42.1822 -84.2653 85° East 202 373 7.000  Level Cleveland Center
Tue 06:35:59 42.1889 -84.1928 83° East 198 367 7.000  Level Cleveland Center
Tue 06:37:00 42.1953 -84.1203 83° East 191 354 7.000  Level Cleveland Center
Tue 06:38:00 42.2017 -84.0478 83° East 191 354 7.000 -496 Level Cleveland Center
Tue 06:39:01 42.2247 -83.9733 67° East 219 406 6.000 -761 Descending Cleveland Center
Tue 06:40:14 42.2583 -83.8911 61° Northeast 216 401 5.300 -411 Descending Cleveland Center
Tue 06:41:27 42.2919 -83.8058 62° Northeast 201 372 5.000 -425 Descending Cleveland Center
Tue 06:42:21 42.3167 -83.7453 61° Northeast 199 369 4.400 -606 Descending Cleveland Center
Tue 06:43:16 42.3392 -83.6817 64° Northeast 209 388 3.900 -627 Descending Cleveland Center
Tue 06:44:35 42.3728 -83.5989 61° Northeast 201 372 3.000 -470 Descending Cleveland Center
Tue 06:45:11 42.3883 -83.5631 60° Northeast 184 341 3.000 -52 Level Cleveland Center
Tue 06:46:30 42.3967 -83.4819 82° East 161 298 2.900 -300 Descending Cleveland Center
Tue 06:47:31 42.3711 -83.4189 119° Southeast 198 367 2.300 -261 Descending Cleveland Center
Tue 06:48:25 42.3403 -83.3981 153° Southeast 154 285 2.400 -50 Climbing Cleveland Center
Tue 06:49:32 42.3039 -83.4356 217° Southwest 167 309 2.200 -375 Descending Cleveland Center
Tue 06:50:33 42.2756 -83.4822 231° Southwest 142 262 1.600 -590 Descending Cleveland Center

Login

Don't have an account? Register now (free) for customized features, flight alerts, and more!